Time;durP1;ratioP1;P1;durP2;ratioP2;P2;SDS_P1;SDS_P2;PMS_P1;PMS_P2;Temp;Humidity;BMP_temperature;BMP_pressure;BME280_temperature;BME280_humidity;BME280_pressure;Samples;Min_cycle;Max_cycle;Signal;HPM_P1;HPM_P2
2021/05/04 00:29:15;;;;;;;16.92;15.18;;;8.80;99.90;;;;;;6087831;22;20296;-80
2021/05/04 00:31:45;;;;;;;14.68;13.13;;;8.80;99.90;;;;;;5030234;28;20204;-79
2021/05/04 00:34:13;;;;;;;13.43;12.13;;;8.80;99.90;;;;;;5038658;28;20294;-79
2021/05/04 00:37:09;;;;;;;;;;;;;;;;;;;;;
2021/05/04 00:49:38;;;;;;;12.07;10.98;;;9.10;99.90;;;;;;4993043;28;20299;-80
2021/05/04 00:52:31;;;;;;;11.80;10.77;;;9.10;99.90;;;;;;5028426;28;20203;-80
2021/05/04 00:55:40;;;;;;;11.27;10.27;;;9.10;99.90;;;;;;5027639;28;20206;-80
2021/05/04 01:02:32;;;;;;;10.95;9.85;;;9.20;99.90;;;;;;5004480;28;20197;-80
2021/05/04 01:05:40;;;;;;;11.90;10.80;;;9.20;99.90;;;;;;4941182;29;20200;-80
2021/05/04 01:12:07;;;;;;;12.20;10.80;;;9.20;99.90;;;;;;5024839;28;20208;-80
2021/05/04 01:18:25;;;;;;;8.18;7.32;;;9.10;99.90;;;;;;5023134;28;20263;-80
2021/05/04 01:27:58;;;;;;;8.77;7.80;;;9.40;99.90;;;;;;4980282;28;20262;-80
2021/05/04 01:31:05;;;;;;;8.90;8.10;;;9.70;99.90;;;;;;4916992;29;20223;-80
2021/05/04 01:33:42;;;;;;;8.20;7.40;;;9.70;99.90;;;;;;4935265;28;20291;-80
2021/05/04 01:57:24;;;;;;;9.10;6.47;;;9.70;99.90;;;;;;4925239;29;20343;-80
2021/05/04 02:00:53;;;;;;;7.13;6.40;;;9.70;99.90;;;;;;4848923;29;20241;-80
2021/05/04 02:20:51;;;;;;;6.00;5.40;;;9.80;99.90;;;;;;5019049;23;20282;-71
2021/05/04 02:23:17;;;;;;;5.80;5.25;;;9.70;99.90;;;;;;5009356;28;20201;-71
2021/05/04 02:25:44;;;;;;;6.45;5.72;;;9.80;99.90;;;;;;5005649;28;20229;-72
2021/05/04 02:28:11;;;;;;;6.60;6.00;;;9.80;99.90;;;;;;5000759;28;20229;-73
2021/05/04 02:30:38;;;;;;;7.18;5.50;;;10.00;99.90;;;;;;5007506;28;20198;-71
2021/05/04 02:33:05;;;;;;;5.68;4.53;;;10.00;99.90;;;;;;5010654;28;20209;-71
2021/05/04 02:35:31;;;;;;;6.38;5.32;;;10.00;99.90;;;;;;5006261;28;20630;-71
2021/05/04 02:37:59;;;;;;;5.75;5.20;;;10.10;99.90;;;;;;5012282;28;20679;-71
2021/05/04 02:40:26;;;;;;;4.57;4.18;;;10.20;99.90;;;;;;5009303;28;20209;-71
2021/05/04 02:42:52;;;;;;;7.60;5.55;;;10.30;99.90;;;;;;5008842;28;20287;-72
2021/05/04 02:45:19;;;;;;;6.38;4.28;;;10.30;99.90;;;;;;5011289;28;20278;-71
2021/05/04 02:47:46;;;;;;;5.90;4.15;;;10.40;99.90;;;;;;5010756;28;20200;-71
2021/05/04 02:50:13;;;;;;;5.50;4.50;;;10.40;99.90;;;;;;5011705;28;20212;-71
2021/05/04 02:52:40;;;;;;;6.18;5.57;;;10.50;99.90;;;;;;4999206;28;20205;-71
2021/05/04 02:55:09;;;;;;;5.07;4.47;;;10.50;99.90;;;;;;5010428;28;20232;-71
2021/05/04 02:57:35;;;;;;;6.03;4.70;;;10.60;99.90;;;;;;5012912;28;20209;-71
2021/05/04 03:00:03;;;;;;;4.50;4.05;;;10.50;99.90;;;;;;5007431;28;20216;-71
2021/05/04 03:02:29;;;;;;;4.47;4.07;;;10.60;99.60;;;;;;4996194;28;20217;-71
2021/05/04 03:04:56;;;;;;;4.90;4.18;;;10.70;99.90;;;;;;5012335;28;20227;-70
2021/05/04 03:07:22;;;;;;;5.35;3.85;;;10.70;99.80;;;;;;5008475;28;20251;-71
2021/05/04 03:09:49;;;;;;;4.07;3.67;;;10.90;99.90;;;;;;5003617;28;20239;-71
2021/05/04 03:12:17;;;;;;;7.75;3.38;;;10.90;99.90;;;;;;5012060;28;20255;-71
2021/05/04 03:14:44;;;;;;;5.80;3.75;;;11.10;99.90;;;;;;5005645;28;20208;-71
2021/05/04 03:17:11;;;;;;;4.05;3.65;;;11.10;99.90;;;;;;5006975;28;20201;-71
2021/05/04 03:19:37;;;;;;;4.10;3.80;;;11.10;99.90;;;;;;5010649;28;20208;-71
2021/05/04 03:22:04;;;;;;;4.97;3.95;;;11.10;99.90;;;;;;5012197;28;20295;-71
2021/05/04 03:24:31;;;;;;;4.40;4.00;;;10.90;99.90;;;;;;5005249;28;20671;-72
2021/05/04 03:26:58;;;;;;;6.38;4.05;;;10.80;99.90;;;;;;5009314;28;20227;-72
2021/05/04 03:29:25;;;;;;;5.07;3.90;;;10.80;99.90;;;;;;5006104;28;20222;-72
2021/05/04 03:31:52;;;;;;;5.47;4.20;;;10.70;99.90;;;;;;5015449;28;20651;-71
2021/05/04 03:34:18;;;;;;;5.55;4.50;;;10.60;99.90;;;;;;5016005;28;20215;-72
2021/05/04 03:36:45;;;;;;;8.10;5.55;;;10.50;99.90;;;;;;5008575;28;20247;-72
2021/05/04 03:39:12;;;;;;;5.22;4.72;;;10.30;99.90;;;;;;5013086;28;20208;-72
2021/05/04 03:41:39;;;;;;;5.50;4.05;;;10.30;99.90;;;;;;5010902;28;20613;-73
2021/05/04 03:44:06;;;;;;;11.93;5.53;;;10.10;99.90;;;;;;5013235;28;20196;-72
2021/05/04 03:46:34;;;;;;;15.85;4.80;;;10.00;99.90;;;;;;5015756;28;20227;-72
2021/05/04 03:49:00;;;;;;;6.60;4.53;;;9.90;99.90;;;;;;5014008;28;20587;-72
2021/05/04 03:51:27;;;;;;;5.18;4.72;;;9.80;99.90;;;;;;5008344;28;20643;-72
2021/05/04 03:53:54;;;;;;;9.10;5.50;;;9.70;99.90;;;;;;5015698;28;20205;-70
2021/05/04 03:56:20;;;;;;;7.18;5.15;;;9.60;99.90;;;;;;5011644;28;20561;-71
2021/05/04 03:58:47;;;;;;;5.00;4.60;;;9.60;99.90;;;;;;5010816;28;20671;-70
2021/05/04 04:01:14;;;;;;;5.57;4.50;;;9.60;99.90;;;;;;5010269;28;20197;-72
2021/05/04 04:03:41;;;;;;;5.25;4.57;;;9.60;99.90;;;;;;5015381;28;20571;-71
2021/05/04 04:06:08;;;;;;;7.38;4.15;;;9.50;99.90;;;;;;5013308;28;20233;-70
2021/05/04 04:08:35;;;;;;;8.65;5.05;;;9.60;99.90;;;;;;5008491;28;20220;-70
2021/05/04 04:11:02;;;;;;;5.45;4.95;;;9.60;99.90;;;;;;5014624;28;20213;-70
2021/05/04 04:13:29;;;;;;;5.47;4.70;;;9.60;99.90;;;;;;5010856;28;20216;-70
2021/05/04 04:15:56;;;;;;;5.57;5.07;;;9.50;99.90;;;;;;5010413;28;20236;-71
2021/05/04 04:18:22;;;;;;;7.50;5.80;;;9.50;99.90;;;;;;5005511;28;20647;-70
2021/05/04 04:20:50;;;;;;;6.35;5.78;;;9.40;99.90;;;;;;5014471;28;20219;-70
2021/05/04 04:23:17;;;;;;;5.63;5.13;;;9.40;99.90;;;;;;5013078;28;20219;-71
2021/05/04 04:25:44;;;;;;;4.35;4.05;;;9.40;99.90;;;;;;5014666;28;20744;-71
2021/05/04 04:28:10;;;;;;;8.25;6.15;;;9.40;99.90;;;;;;5012286;28;20293;-70
2021/05/04 04:30:38;;;;;;;5.28;4.88;;;9.50;99.90;;;;;;5014832;28;20213;-70
2021/05/04 04:33:05;;;;;;;9.77;6.05;;;9.40;99.90;;;;;;5014948;28;20538;-71
2021/05/04 04:35:32;;;;;;;6.40;5.45;;;9.40;99.90;;;;;;5013305;28;20595;-70
2021/05/04 04:37:59;;;;;;;11.77;5.32;;;9.30;99.90;;;;;;5014281;28;20205;-70
2021/05/04 04:40:26;;;;;;;6.32;5.75;;;9.40;99.90;;;;;;5014782;28;20209;-70
2021/05/04 04:42:53;;;;;;;7.65;6.85;;;9.40;99.90;;;;;;5013087;28;20208;-70
2021/05/04 04:45:19;;;;;;;9.73;6.53;;;9.30;99.90;;;;;;5014182;28;20228;-71
2021/05/04 04:47:46;;;;;;;7.85;6.35;;;9.40;99.90;;;;;;5007708;28;20236;-71
2021/05/04 04:50:13;;;;;;;6.40;5.80;;;9.30;99.90;;;;;;5013708;28;20240;-70
2021/05/04 04:52:39;;;;;;;7.40;6.65;;;9.30;99.90;;;;;;5014182;28;20211;-70
2021/05/04 04:55:08;;;;;;;7.35;6.43;;;9.30;99.90;;;;;;5011960;28;20454;-70
2021/05/04 04:57:35;;;;;;;8.10;6.13;;;9.30;99.90;;;;;;5012024;28;20493;-70
2021/05/04 05:00:02;;;;;;;8.02;5.75;;;9.30;99.90;;;;;;4996546;28;20309;-71
2021/05/04 05:02:28;;;;;;;7.35;6.22;;;9.30;99.90;;;;;;5011454;28;20248;-71
2021/05/04 05:04:55;;;;;;;11.40;6.38;;;9.40;99.90;;;;;;5014246;28;20216;-71
2021/05/04 05:07:21;;;;;;;6.70;6.10;;;9.40;99.90;;;;;;5006102;28;20602;-71
2021/05/04 05:09:48;;;;;;;7.68;5.75;;;9.40;99.90;;;;;;5007868;28;20224;-70
2021/05/04 05:12:16;;;;;;;9.50;6.15;;;9.30;99.90;;;;;;5014102;28;20216;-71
2021/05/04 05:14:43;;;;;;;6.30;5.70;;;9.50;99.90;;;;;;5012855;28;20205;-70
2021/05/04 05:17:11;;;;;;;7.20;5.53;;;9.50;99.90;;;;;;5010469;28;20318;-70
2021/05/04 05:19:37;;;;;;;8.60;5.65;;;9.50;99.90;;;;;;5004627;28;20201;-69
2021/05/04 05:22:04;;;;;;;4.75;3.80;;;9.50;99.90;;;;;;5011363;28;20243;-70
2021/05/04 05:24:31;;;;;;;5.07;4.57;;;9.50;99.90;;;;;;5012837;28;20205;-70
2021/05/04 05:26:58;;;;;;;9.70;5.53;;;9.50;99.90;;;;;;5010424;28;20228;-70
2021/05/04 05:29:25;;;;;;;5.88;4.18;;;9.50;99.90;;;;;;5008844;28;20221;-70
2021/05/04 05:31:52;;;;;;;4.20;3.80;;;9.40;99.90;;;;;;5011717;28;20228;-71
2021/05/04 05:34:18;;;;;;;5.22;3.70;;;9.50;99.90;;;;;;5008615;28;20722;-70
2021/05/04 05:36:45;;;;;;;5.47;4.55;;;9.40;99.90;;;;;;5010745;28;20283;-70
2021/05/04 05:39:12;;;;;;;4.47;3.85;;;9.40;99.90;;;;;;5012570;28;20197;-69
2021/05/04 05:41:40;;;;;;;6.00;5.45;;;9.50;99.90;;;;;;5011924;28;20208;-71
2021/05/04 05:44:07;;;;;;;7.70;4.05;;;9.40;99.90;;;;;;5010667;28;20215;-68
2021/05/04 05:46:35;;;;;;;5.88;3.97;;;9.50;99.90;;;;;;5005926;28;20222;-71
2021/05/04 05:49:01;;;;;;;6.88;4.88;;;9.50;99.90;;;;;;5009849;28;20228;-68
2021/05/04 05:51:28;;;;;;;4.28;3.88;;;9.50;99.90;;;;;;5010399;28;20250;-70
2021/05/04 05:53:55;;;;;;;6.40;3.85;;;9.50;99.90;;;;;;5008409;28;20226;-70
2021/05/04 05:56:22;;;;;;;3.30;3.00;;;9.70;99.90;;;;;;5002474;28;20229;-71
2021/05/04 05:58:49;;;;;;;3.83;3.42;;;9.70;99.90;;;;;;5011500;28;20209;-71
2021/05/04 06:01:15;;;;;;;5.57;3.28;;;9.80;99.90;;;;;;5004240;28;20209;-72
2021/05/04 06:03:43;;;;;;;5.50;3.53;;;9.80;99.90;;;;;;5003605;28;20228;-72
2021/05/04 06:06:10;;;;;;;3.40;3.05;;;9.90;99.90;;;;;;5005672;28;20702;-73
2021/05/04 06:08:37;;;;;;;4.22;3.83;;;10.10;99.90;;;;;;5002592;28;20234;-73
2021/05/04 06:11:04;;;;;;;5.47;4.28;;;10.10;99.90;;;;;;5009258;28;20200;-73
2021/05/04 06:13:30;;;;;;;3.75;3.22;;;10.10;99.90;;;;;;5005671;28;20239;-73
2021/05/04 06:15:57;;;;;;;6.78;3.95;;;10.20;99.90;;;;;;5010932;28;20221;-72
2021/05/04 06:18:24;;;;;;;5.30;3.22;;;10.20;99.90;;;;;;5005367;28;20201;-74
2021/05/04 06:20:52;;;;;;;3.85;3.55;;;10.10;99.90;;;;;;5000705;28;20219;-73
2021/05/04 06:23:19;;;;;;;3.40;3.10;;;10.10;99.90;;;;;;4999832;28;20205;-73
2021/05/04 06:25:45;;;;;;;4.38;3.90;;;10.10;99.90;;;;;;5006507;28;20217;-76
2021/05/04 06:28:12;;;;;;;4.93;3.40;;;10.10;99.90;;;;;;5001299;28;20221;-75
2021/05/04 06:30:39;;;;;;;12.38;4.10;;;10.20;99.90;;;;;;5008381;28;20565;-76
2021/05/04 06:33:08;;;;;;;2.97;2.67;;;10.10;99.90;;;;;;5004534;28;20275;-76
2021/05/04 06:35:37;;;;;;;6.78;3.95;;;10.30;99.90;;;;;;5006305;28;20304;-74
2021/05/04 06:38:05;;;;;;;3.95;3.40;;;10.30;99.90;;;;;;5003220;28;20257;-74
2021/05/04 06:40:33;;;;;;;6.53;3.72;;;10.40;99.90;;;;;;5006316;28;20725;-73
2021/05/04 06:43:01;;;;;;;7.57;3.85;;;10.30;99.90;;;;;;5007025;28;20212;-74
2021/05/04 06:45:29;;;;;;;7.35;4.05;;;10.30;99.90;;;;;;5002377;28;20392;-77
2021/05/04 06:47:56;;;;;;;4.10;3.70;;;10.40;99.90;;;;;;5012747;28;20207;-75
2021/05/04 06:50:23;;;;;;;6.22;4.07;;;10.50;99.90;;;;;;5007769;28;20240;-76
2021/05/04 06:52:51;;;;;;;3.70;3.10;;;10.40;99.90;;;;;;4999130;28;20236;-74
2021/05/04 06:55:19;;;;;;;4.50;3.20;;;10.40;99.90;;;;;;5009932;28;20227;-76
2021/05/04 06:57:47;;;;;;;4.13;3.53;;;10.30;99.90;;;;;;5009893;28;20204;-79
2021/05/04 07:00:15;;;;;;;3.63;3.33;;;10.20;99.90;;;;;;5009759;28;20204;-72
2021/05/04 07:02:42;;;;;;;4.93;4.07;;;10.10;99.90;;;;;;5002398;28;20204;-72
2021/05/04 07:05:10;;;;;;;5.38;4.97;;;10.10;99.90;;;;;;5001958;28;20264;-72
2021/05/04 07:07:37;;;;;;;4.90;4.30;;;10.00;99.90;;;;;;5009036;28;20209;-71
2021/05/04 07:10:05;;;;;;;6.07;5.47;;;9.90;99.90;;;;;;5011123;28;20228;-71
2021/05/04 07:12:34;;;;;;;7.00;4.95;;;9.70;99.90;;;;;;5010775;28;20220;-70
2021/05/04 07:15:00;;;;;;;6.07;5.13;;;9.70;99.90;;;;;;5010166;28;20197;-71
2021/05/04 07:17:27;;;;;;;9.10;5.60;;;9.70;99.90;;;;;;5009744;28;20197;-71
2021/05/04 07:19:56;;;;;;;5.55;4.97;;;9.60;99.90;;;;;;5005086;28;20233;-71
2021/05/04 07:22:25;;;;;;;4.65;4.10;;;9.70;99.90;;;;;;5007847;28;20208;-69
2021/05/04 07:24:52;;;;;;;4.35;3.95;;;9.80;99.90;;;;;;5008159;28;20300;-68
2021/05/04 07:27:18;;;;;;;5.07;3.85;;;9.80;99.90;;;;;;5007574;28;20283;-68
2021/05/04 07:29:48;;;;;;;8.38;5.15;;;9.80;99.90;;;;;;5008878;28;20275;-69
2021/05/04 07:32:16;;;;;;;4.35;4.05;;;9.80;99.90;;;;;;5007517;28;20205;-69
2021/05/04 07:34:48;;;;;;;4.32;3.92;;;9.90;99.90;;;;;;5006550;28;20601;-69
2021/05/04 07:37:14;;;;;;;3.90;3.55;;;10.10;99.90;;;;;;5006578;28;20197;-69
2021/05/04 07:39:42;;;;;;;5.95;3.60;;;10.30;99.90;;;;;;5007657;28;20862;-68
2021/05/04 07:42:11;;;;;;;4.22;3.90;;;10.50;99.90;;;;;;5010487;28;20204;-69
2021/05/04 07:44:38;;;;;;;4.07;3.78;;;10.50;99.90;;;;;;5010980;28;20237;-69
2021/05/04 07:47:06;;;;;;;5.07;3.90;;;10.60;99.90;;;;;;5006312;28;20228;-68
2021/05/04 07:49:42;;;;;;;5.68;5.20;;;10.70;99.90;;;;;;4998743;28;20711;-69
2021/05/04 07:52:08;;;;;;;5.93;5.43;;;10.70;99.90;;;;;;4999760;28;20339;-69
2021/05/04 07:54:36;;;;;;;4.88;4.38;;;10.50;99.90;;;;;;5004529;28;20212;-69
2021/05/04 07:57:04;;;;;;;5.85;4.35;;;10.40;99.90;;;;;;5007219;28;20240;-69
2021/05/04 07:59:30;;;;;;;7.75;5.20;;;10.20;99.90;;;;;;5009791;28;20201;-69
2021/05/04 08:01:59;;;;;;;6.00;4.20;;;10.30;99.90;;;;;;5006453;28;20209;-67
2021/05/04 08:04:26;;;;;;;5.00;4.60;;;10.20;99.90;;;;;;5011042;28;20568;-69
2021/05/04 08:06:53;;;;;;;6.45;5.85;;;10.20;99.90;;;;;;5007577;28;20228;-68
2021/05/04 08:09:20;;;;;;;6.32;4.43;;;10.20;99.90;;;;;;5005765;28;20248;-68
2021/05/04 08:11:46;;;;;;;6.07;5.47;;;10.10;99.90;;;;;;5011105;28;20339;-68
2021/05/04 08:14:13;;;;;;;7.20;6.20;;;10.10;99.90;;;;;;5010153;28;20676;-69
2021/05/04 08:16:40;;;;;;;6.82;6.25;;;10.00;99.90;;;;;;5013588;28;20279;-68
2021/05/04 08:19:06;;;;;;;7.22;5.68;;;10.00;99.90;;;;;;5013669;28;20224;-68
2021/05/04 08:21:34;;;;;;;6.97;6.20;;;10.00;99.90;;;;;;5014463;28;20220;-68
2021/05/04 08:24:01;;;;;;;6.40;5.80;;;10.00;99.90;;;;;;5008254;28;20232;-68
2021/05/04 08:26:28;;;;;;;5.05;4.60;;;10.00;99.90;;;;;;5014127;28;20235;-68
2021/05/04 08:28:56;;;;;;;4.68;4.28;;;10.00;99.90;;;;;;5013866;28;20599;-68
2021/05/04 08:31:23;;;;;;;5.90;3.70;;;10.00;99.90;;;;;;5013885;28;20255;-68
2021/05/04 08:33:50;;;;;;;6.20;4.93;;;10.20;99.90;;;;;;5012253;28;20656;-68
2021/05/04 08:36:18;;;;;;;3.40;3.10;;;10.40;99.90;;;;;;5012628;28;20228;-68
2021/05/04 08:38:45;;;;;;;3.40;3.10;;;10.50;99.90;;;;;;5009719;28;20565;-69
2021/05/04 08:41:15;;;;;;;2.55;2.35;;;10.60;99.90;;;;;;5012004;28;20209;-69
2021/05/04 08:43:46;;;;;;;3.00;2.38;;;11.20;99.90;;;;;;5004609;28;20631;-69
2021/05/04 08:46:15;;;;;;;2.50;2.30;;;11.60;99.90;;;;;;5009513;28;20539;-70
2021/05/04 08:48:43;;;;;;;3.03;2.30;;;11.70;99.90;;;;;;5009693;28;20233;-69
2021/05/04 08:51:11;;;;;;;2.33;2.20;;;11.70;99.90;;;;;;5010794;28;20197;-69
2021/05/04 08:53:38;;;;;;;2.65;2.45;;;11.50;99.90;;;;;;5012887;28;20328;-69
2021/05/04 08:56:08;;;;;;;6.35;3.72;;;11.10;99.90;;;;;;5010838;28;20253;-69
2021/05/04 08:58:35;;;;;;;3.28;2.80;;;11.10;99.90;;;;;;5013284;28;20546;-69
2021/05/04 09:01:02;;;;;;;6.70;2.90;;;11.10;99.90;;;;;;5002624;28;20296;-69
2021/05/04 09:03:33;;;;;;;3.20;2.90;;;10.90;99.90;;;;;;5008459;28;20212;-69
2021/05/04 09:06:04;;;;;;;4.25;3.22;;;10.90;99.90;;;;;;5008870;28;20233;-70
2021/05/04 09:08:36;;;;;;;3.78;3.47;;;10.80;99.90;;;;;;5013845;28;20225;-69
2021/05/04 09:11:37;;;;;;;3.92;3.53;;;10.70;99.90;;;;;;5010137;28;20332;-69
2021/05/04 09:14:10;;;;;;;4.57;4.13;;;10.70;99.90;;;;;;5012782;28;20232;-69
2021/05/04 09:16:47;;;;;;;4.30;3.90;;;10.80;99.90;;;;;;5012496;28;20339;-69
2021/05/04 09:22:17;;;;;;;5.88;4.90;;;10.80;99.90;;;;;;4973470;28;20271;-69
2021/05/04 09:24:45;;;;;;;6.32;5.28;;;10.80;99.90;;;;;;5010689;28;20292;-70
2021/05/04 09:27:15;;;;;;;6.07;5.00;;;10.80;99.90;;;;;;5011331;28;20220;-70
2021/05/04 09:29:44;;;;;;;5.53;5.03;;;10.70;99.90;;;;;;5012173;28;20220;-69
2021/05/04 09:32:22;;;;;;;5.95;4.80;;;10.50;99.90;;;;;;5011611;28;20253;-69
2021/05/04 09:34:54;;;;;;;6.40;5.90;;;10.50;99.90;;;;;;5006458;28;20209;-69
2021/05/04 09:37:23;;;;;;;6.20;5.60;;;10.50;99.90;;;;;;5012916;28;20215;-69
2021/05/04 09:39:50;;;;;;;6.40;5.53;;;10.70;99.90;;;;;;5012559;28;20211;-69
2021/05/04 09:42:20;;;;;;;10.20;9.00;;;10.90;99.90;;;;;;5009265;28;20316;-69
2021/05/04 09:44:50;;;;;;;5.88;5.15;;;11.10;99.90;;;;;;5012909;28;20205;-70
2021/05/04 09:47:22;;;;;;;5.00;4.60;;;11.30;99.90;;;;;;5006216;28;20619;-69
2021/05/04 09:49:50;;;;;;;7.55;4.65;;;11.50;99.90;;;;;;5012165;28;20226;-69
2021/05/04 09:52:27;;;;;;;4.15;3.85;;;11.60;99.90;;;;;;5011441;28;20240;-69
2021/05/04 09:55:03;;;;;;;6.75;3.70;;;11.70;99.90;;;;;;5012262;28;20656;-70
2021/05/04 09:57:32;;;;;;;3.85;2.85;;;12.00;99.90;;;;;;5009811;28;20206;-71
2021/05/04 10:00:00;;;;;;;3.33;2.97;;;12.90;99.90;;;;;;5012130;28;20665;-69
2021/05/04 10:02:28;;;;;;;4.40;2.97;;;13.70;99.90;;;;;;5013119;28;20307;-70
2021/05/04 10:04:55;;;;;;;3.38;2.38;;;14.60;99.90;;;;;;5011655;28;20655;-70
2021/05/04 10:07:23;;;;;;;3.63;2.38;;;15.70;99.90;;;;;;5004779;28;20214;-69
2021/05/04 10:09:51;;;;;;;4.95;2.50;;;15.80;99.90;;;;;;5006567;28;20639;-69
2021/05/04 10:12:20;;;;;;;4.72;4.32;;;15.70;99.90;;;;;;5009382;28;20217;-70
2021/05/04 10:14:51;;;;;;;3.67;2.20;;;15.50;99.90;;;;;;5012862;28;20287;-71
2021/05/04 10:17:19;;;;;;;5.82;4.18;;;14.60;99.90;;;;;;5008465;28;20220;-70
2021/05/04 10:19:47;;;;;;;6.95;2.63;;;14.00;99.90;;;;;;5011583;28;20639;-70
2021/05/04 10:22:17;;;;;;;2.75;2.03;;;13.80;99.90;;;;;;5003922;28;20197;-71
2021/05/04 10:24:47;;;;;;;2.20;1.70;;;13.90;99.90;;;;;;5010868;28;20204;-71
2021/05/04 10:27:19;;;;;;;2.13;1.73;;;13.50;99.90;;;;;;5006161;28;20204;-69
2021/05/04 10:29:51;;;;;;;4.43;2.10;;;13.40;99.90;;;;;;5009453;28;20257;-69
2021/05/04 10:32:48;;;;;;;3.17;1.90;;;12.90;99.90;;;;;;5009744;28;20222;-70
2021/05/04 10:35:35;;;;;;;2.40;1.60;;;12.90;99.90;;;;;;5008602;28;20219;-70
2021/05/04 10:38:04;;;;;;;2.35;1.42;;;13.00;99.90;;;;;;5007523;28;20729;-70
2021/05/04 10:40:33;;;;;;;2.75;1.60;;;13.10;99.90;;;;;;5006976;28;20206;-70
2021/05/04 10:43:02;;;;;;;6.95;2.10;;;13.20;99.90;;;;;;5009678;28;20208;-69
2021/05/04 10:45:40;;;;;;;2.72;1.58;;;13.30;99.90;;;;;;5003720;28;20227;-70
2021/05/04 10:48:08;;;;;;;3.00;1.80;;;13.70;99.90;;;;;;5008611;28;20204;-69
2021/05/04 10:50:50;;;;;;;2.03;1.73;;;14.10;99.90;;;;;;5000522;28;20221;-69
2021/05/04 10:53:17;;;;;;;3.67;1.50;;;14.60;99.90;;;;;;5001105;28;20292;-70
2021/05/04 10:56:08;;;;;;;3.13;2.00;;;14.70;99.90;;;;;;5010061;28;20220;-69
2021/05/04 10:58:46;;;;;;;1.67;1.58;;;15.10;99.90;;;;;;4993403;28;20229;-69
2021/05/04 11:01:18;;;;;;;4.03;1.80;;;15.00;99.90;;;;;;5008289;28;20224;-69
2021/05/04 11:03:54;;;;;;;3.67;1.85;;;15.00;99.90;;;;;;5007896;28;20311;-69
2021/05/04 11:06:46;;;;;;;3.45;1.85;;;14.80;99.90;;;;;;5008734;28;20228;-69
2021/05/04 11:09:20;;;;;;;5.70;2.20;;;14.40;99.90;;;;;;5003710;28;20241;-69
2021/05/04 11:11:53;;;;;;;1.92;1.50;;;14.00;99.90;;;;;;5008726;28;20235;-69
2021/05/04 11:14:33;;;;;;;7.72;2.22;;;14.30;99.90;;;;;;5003480;28;20205;-69
2021/05/04 11:17:08;;;;;;;6.05;2.45;;;13.90;99.90;;;;;;5009141;28;20598;-68
2021/05/04 11:19:39;;;;;;;3.58;2.50;;;13.50;99.90;;;;;;5005108;28;20236;-68
2021/05/04 11:22:18;;;;;;;5.50;3.15;;;13.50;99.90;;;;;;5008003;28;20204;-67
2021/05/04 11:24:48;;;;;;;3.95;2.10;;;13.50;99.90;;;;;;4999001;28;20639;-68
2021/05/04 11:27:33;;;;;;;2.75;2.08;;;13.80;99.90;;;;;;5008692;28;20255;-68
2021/05/04 11:30:02;;;;;;;4.97;2.78;;;14.40;99.90;;;;;;5007401;28;20251;-68
2021/05/04 11:32:41;;;;;;;2.83;2.50;;;14.50;99.90;;;;;;5005941;28;20200;-69
2021/05/04 11:35:10;;;;;;;7.43;2.83;;;14.30;99.90;;;;;;5006539;28;20283;-68
2021/05/04 11:37:48;;;;;;;3.55;2.63;;;14.20;99.90;;;;;;5010166;28;20566;-68
2021/05/04 11:40:18;;;;;;;3.45;3.05;;;14.20;99.90;;;;;;5010181;28;20211;-66
2021/05/04 11:42:47;;;;;;;2.72;2.53;;;14.00;99.90;;;;;;5004524;28;20712;-69
2021/05/04 11:45:15;;;;;;;4.05;2.60;;;14.20;99.90;;;;;;5008785;28;20605;-68
2021/05/04 11:47:45;;;;;;;3.47;2.70;;;13.90;99.90;;;;;;5012803;28;20240;-69
2021/05/04 11:50:14;;;;;;;4.45;2.35;;;13.60;99.90;;;;;;5012494;28;20228;-68
2021/05/04 11:52:43;;;;;;;6.72;3.60;;;13.70;99.90;;;;;;5009646;28;20699;-68
2021/05/04 11:55:12;;;;;;;3.90;3.13;;;13.30;99.90;;;;;;5007668;28;20230;-68
2021/05/04 11:57:41;;;;;;;4.85;3.42;;;13.30;99.90;;;;;;5013043;28;20212;-68
2021/05/04 12:00:09;;;;;;;4.85;2.90;;;13.40;99.90;;;;;;5014645;28;20228;-67
2021/05/04 12:02:37;;;;;;;3.30;2.95;;;13.20;99.90;;;;;;5014809;28;20204;-68
2021/05/04 12:05:07;;;;;;;5.40;2.63;;;13.30;99.90;;;;;;5005427;28;20341;-68
2021/05/04 12:07:43;;;;;;;6.50;3.90;;;13.10;99.90;;;;;;5013796;28;20202;-68
2021/05/04 12:10:38;;;;;;;3.30;2.30;;;13.00;99.90;;;;;;4996686;28;20231;-69
2021/05/04 12:13:06;;;;;;;4.70;2.42;;;12.90;99.90;;;;;;5002808;28;20214;-68
2021/05/04 12:15:35;;;;;;;9.02;3.10;;;12.90;99.90;;;;;;5012554;28;20613;-68
2021/05/04 12:18:13;;;;;;;5.10;2.83;;;12.70;99.90;;;;;;5011014;28;20197;-69
2021/05/04 12:20:46;;;;;;;3.97;2.58;;;12.20;99.90;;;;;;5009006;28;20271;-69
2021/05/04 12:23:14;;;;;;;6.22;1.85;;;11.40;99.90;;;;;;5010953;28;20205;-68
2021/05/04 12:25:51;;;;;;;2.55;2.33;;;10.90;99.90;;;;;;5007254;28;20228;-68
2021/05/04 12:28:20;;;;;;;3.05;1.67;;;10.40;99.90;;;;;;5013556;28;20212;-68
2021/05/04 12:30:48;;;;;;;2.22;1.40;;;10.10;99.90;;;;;;5010787;28;20218;-68
2021/05/04 12:33:17;;;;;;;3.45;1.55;;;10.10;99.90;;;;;;5013884;28;20201;-69
2021/05/04 12:35:57;;;;;;;3.30;1.70;;;10.20;99.90;;;;;;5014584;28;20229;-69
2021/05/04 12:38:26;;;;;;;3.28;1.33;;;10.40;99.90;;;;;;5012996;28;20640;-69
2021/05/04 12:40:59;;;;;;;2.97;1.77;;;11.00;99.90;;;;;;5014830;28;20259;-68
2021/05/04 12:43:28;;;;;;;3.40;1.45;;;11.40;99.90;;;;;;5001704;28;20640;-70
2021/05/04 12:46:03;;;;;;;2.60;1.40;;;11.40;99.90;;;;;;5013713;28;20296;-70
2021/05/04 12:48:30;;;;;;;1.40;1.30;;;11.60;99.90;;;;;;5010801;28;20214;-69
2021/05/04 12:51:03;;;;;;;2.55;1.42;;;12.00;99.90;;;;;;5012925;28;20439;-71
2021/05/04 12:53:38;;;;;;;2.65;1.92;;;12.30;99.90;;;;;;5012411;28;20510;-70
2021/05/04 12:56:08;;;;;;;6.07;2.22;;;12.40;99.90;;;;;;5001820;28;20216;-70
2021/05/04 12:58:54;;;;;;;7.38;3.33;;;12.50;99.90;;;;;;5013020;28;20264;-71
2021/05/04 13:01:35;;;;;;;4.53;1.92;;;12.30;99.90;;;;;;5002023;28;20660;-71
2021/05/04 13:04:04;;;;;;;7.53;2.33;;;12.40;99.90;;;;;;4993630;28;20237;-69
2021/05/04 13:06:51;;;;;;;2.60;1.75;;;12.40;99.90;;;;;;5011150;28;20238;-70
2021/05/04 13:09:26;;;;;;;3.55;2.35;;;12.40;99.90;;;;;;5012726;28;20221;-70
2021/05/04 13:31:41;;;;;;;4.78;2.25;;;13.20;99.90;;;;;;4998676;28;20660;-68
2021/05/04 13:34:13;;;;;;;6.78;2.20;;;13.00;99.90;;;;;;5007916;28;20225;-70
2021/05/04 13:36:39;;;;;;;6.18;2.40;;;12.90;99.90;;;;;;5002055;28;20265;-68
2021/05/04 13:39:22;;;;;;;5.75;2.22;;;13.20;99.90;;;;;;5012819;28;20217;-69
2021/05/04 13:47:33;;;;;;;2.95;1.80;;;13.30;99.60;;;;;;4982583;28;20575;-69
2021/05/04 13:50:00;;;;;;;2.97;1.50;;;13.10;98.40;;;;;;5010534;28;20226;-69
2021/05/04 13:52:27;;;;;;;2.58;1.55;;;13.10;99.90;;;;;;5000440;28;20423;-71
2021/05/04 13:54:54;;;;;;;2.53;1.90;;;13.20;99.90;;;;;;5005382;28;20257;-68
2021/05/04 13:57:21;;;;;;;2.55;2.00;;;13.20;99.00;;;;;;5011953;28;20292;-68
2021/05/04 13:59:52;;;;;;;5.53;2.33;;;13.10;98.20;;;;;;5012018;28;20204;-68
2021/05/04 14:02:28;;;;;;;4.70;2.22;;;13.00;97.90;;;;;;5006588;28;20671;-68
2021/05/04 14:05:04;;;;;;;12.10;2.13;;;12.90;97.90;;;;;;5007678;28;20584;-69
2021/05/04 14:08:14;;;;;;;3.15;1.95;;;12.70;99.80;;;;;;4998875;28;20204;-69
2021/05/04 14:27:09;;;;;;;2.25;1.60;;;9.10;99.90;;;;;;5010013;28;20249;-69
2021/05/04 14:29:35;;;;;;;1.83;1.30;;;8.90;99.90;;;;;;5008781;28;20230;-69
2021/05/04 14:32:02;;;;;;;0.95;0.90;;;9.00;99.90;;;;;;5011800;28;20207;-68
2021/05/04 14:34:32;;;;;;;4.90;1.60;;;9.30;99.90;;;;;;5005243;28;20203;-68
2021/05/04 14:37:03;;;;;;;1.85;1.27;;;9.40;99.90;;;;;;5003245;28;20329;-69
2021/05/04 14:39:43;;;;;;;3.15;1.33;;;9.60;99.90;;;;;;5007420;28;20224;-70
2021/05/04 14:42:45;;;;;;;2.67;1.67;;;9.90;99.90;;;;;;5007740;28;20590;-69
2021/05/04 14:45:55;;;;;;;4.53;2.35;;;9.90;99.90;;;;;;5010030;28;20266;-69
2021/05/04 14:56:57;;;;;;;2.50;2.10;;;10.10;99.90;;;;;;5010018;28;20221;-68
2021/05/04 14:59:27;;;;;;;3.40;2.38;;;10.20;99.90;;;;;;5007730;28;20212;-69
2021/05/04 15:01:54;;;;;;;2.75;2.55;;;10.20;99.90;;;;;;5011360;28;20217;-69
2021/05/04 15:04:21;;;;;;;4.25;1.88;;;10.30;99.90;;;;;;5003333;28;20604;-69
2021/05/04 15:06:50;;;;;;;5.22;2.40;;;10.30;99.90;;;;;;5004695;28;20222;-70
2021/05/04 15:09:16;;;;;;;2.33;1.75;;;10.40;99.90;;;;;;5009722;28;20228;-69
2021/05/04 15:11:46;;;;;;;4.72;1.95;;;10.40;99.90;;;;;;5005189;28;20212;-69
2021/05/04 15:14:21;;;;;;;5.00;3.03;;;10.60;99.90;;;;;;5008999;28;20238;-70
2021/05/04 15:16:50;;;;;;;3.42;1.98;;;10.70;99.90;;;;;;5011567;28;20553;-70
2021/05/04 15:21:59;;;;;;;2.17;1.98;;;10.80;99.90;;;;;;4956012;28;20708;-70
2021/05/04 15:24:26;;;;;;;4.53;2.20;;;10.90;99.90;;;;;;5000162;28;20203;-70
2021/05/04 15:26:54;;;;;;;5.00;1.88;;;10.90;99.90;;;;;;5011024;28;20299;-69
2021/05/04 15:29:22;;;;;;;3.45;2.20;;;11.20;99.90;;;;;;4997947;28;20236;-69
2021/05/04 15:31:53;;;;;;;4.22;2.28;;;11.30;99.90;;;;;;5009975;28;20290;-70
2021/05/04 15:34:22;;;;;;;2.47;2.28;;;11.20;99.90;;;;;;4998418;28;20205;-69
2021/05/04 15:36:50;;;;;;;7.53;3.10;;;11.20;99.90;;;;;;5009426;28;20225;-69
2021/05/04 15:39:17;;;;;;;3.95;2.60;;;11.10;99.90;;;;;;5010519;28;20215;-70